sensor_id;sensor_type;location;lat;lon;timestamp;temperature;humidity
22838;DHT22;11585;51.450;-0.240;2024-03-08T00:00:43;8.70;99.90
22838;DHT22;11585;51.450;-0.240;2024-03-08T00:03:09;8.70;99.90
22838;DHT22;11585;51.450;-0.240;2024-03-08T00:06:01;8.70;99.90
22838;DHT22;11585;51.450;-0.240;2024-03-08T00:08:27;8.70;99.90
22838;DHT22;11585;51.450;-0.240;2024-03-08T00:10:53;8.70;99.90
22838;DHT22;11585;51.450;-0.240;2024-03-08T00:13:19;8.70;99.90
22838;DHT22;11585;51.450;-0.240;2024-03-08T00:16:04;8.70;99.90
22838;DHT22;11585;51.450;-0.240;2024-03-08T00:18:29;8.70;99.90
22838;DHT22;11585;51.450;-0.240;2024-03-08T00:20:55;8.70;99.90
22838;DHT22;11585;51.450;-0.240;2024-03-08T00:23:21;8.70;99.90
22838;DHT22;11585;51.450;-0.240;2024-03-08T00:25:48;8.70;99.90
22838;DHT22;11585;51.450;-0.240;2024-03-08T00:28:13;8.70;99.90
22838;DHT22;11585;51.450;-0.240;2024-03-08T00:30:40;8.70;99.90
22838;DHT22;11585;51.450;-0.240;2024-03-08T00:33:06;8.70;99.90
22838;DHT22;11585;51.450;-0.240;2024-03-08T00:35:31;8.70;99.90
22838;DHT22;11585;51.450;-0.240;2024-03-08T00:37:57;8.70;99.90
22838;DHT22;11585;51.450;-0.240;2024-03-08T00:40:23;8.70;99.90
22838;DHT22;11585;51.450;-0.240;2024-03-08T00:42:48;8.70;99.90
22838;DHT22;11585;51.450;-0.240;2024-03-08T00:45:14;8.60;99.90
22838;DHT22;11585;51.450;-0.240;2024-03-08T00:47:40;8.60;99.90
22838;DHT22;11585;51.450;-0.240;2024-03-08T00:50:05;8.60;99.90
22838;DHT22;11585;51.450;-0.240;2024-03-08T00:52:31;8.60;99.90
22838;DHT22;11585;51.450;-0.240;2024-03-08T00:54:57;8.60;99.90
22838;DHT22;11585;51.450;-0.240;2024-03-08T00:57:23;8.60;99.90
22838;DHT22;11585;51.450;-0.240;2024-03-08T00:59:48;8.60;99.90
22838;DHT22;11585;51.450;-0.240;2024-03-08T01:02:14;8.60;99.90
22838;DHT22;11585;51.450;-0.240;2024-03-08T01:04:42;8.60;99.90
22838;DHT22;11585;51.450;-0.240;2024-03-08T01:07:07;8.60;99.90
22838;DHT22;11585;51.450;-0.240;2024-03-08T01:09:33;8.60;99.90
22838;DHT22;11585;51.450;-0.240;2024-03-08T01:11:59;8.60;99.90
22838;DHT22;11585;51.450;-0.240;2024-03-08T01:14:44;8.60;99.90
22838;DHT22;11585;51.450;-0.240;2024-03-08T01:17:10;8.60;99.90
22838;DHT22;11585;51.450;-0.240;2024-03-08T01:19:37;8.60;99.90
22838;DHT22;11585;51.450;-0.240;2024-03-08T01:22:02;8.60;99.90
22838;DHT22;11585;51.450;-0.240;2024-03-08T01:24:47;8.60;99.90
22838;DHT22;11585;51.450;-0.240;2024-03-08T01:27:13;8.60;99.90
22838;DHT22;11585;51.450;-0.240;2024-03-08T01:29:38;8.60;99.90
22838;DHT22;11585;51.450;-0.240;2024-03-08T01:32:04;8.60;99.90
22838;DHT22;11585;51.450;-0.240;2024-03-08T01:34:31;8.60;99.90
22838;DHT22;11585;51.450;-0.240;2024-03-08T01:36:58;8.50;99.90
22838;DHT22;11585;51.450;-0.240;2024-03-08T01:39:25;8.60;99.90
22838;DHT22;11585;51.450;-0.240;2024-03-08T01:41:51;8.50;99.90
22838;DHT22;11585;51.450;-0.240;2024-03-08T01:44:16;8.50;99.90
22838;DHT22;11585;51.450;-0.240;2024-03-08T01:46:52;8.50;99.90
22838;DHT22;11585;51.450;-0.240;2024-03-08T01:49:20;8.50;99.90
22838;DHT22;11585;51.450;-0.240;2024-03-08T01:51:48;8.50;99.90
22838;DHT22;11585;51.450;-0.240;2024-03-08T01:54:17;8.50;99.90
22838;DHT22;11585;51.450;-0.240;2024-03-08T01:56:44;8.50;99.90
22838;DHT22;11585;51.450;-0.240;2024-03-08T01:59:09;8.50;99.90
22838;DHT22;11585;51.450;-0.240;2024-03-08T02:01:35;8.50;99.90
22838;DHT22;11585;51.450;-0.240;2024-03-08T02:04:01;8.50;99.90
22838;DHT22;11585;51.450;-0.240;2024-03-08T02:06:28;8.50;99.90
22838;DHT22;11585;51.450;-0.240;2024-03-08T02:08:53;8.50;99.90
22838;DHT22;11585;51.450;-0.240;2024-03-08T02:11:19;8.50;99.90
22838;DHT22;11585;51.450;-0.240;2024-03-08T02:13:46;8.50;99.90
22838;DHT22;11585;51.450;-0.240;2024-03-08T02:19:33;8.50;99.90
22838;DHT22;11585;51.450;-0.240;2024-03-08T02:22:01;8.50;99.90
22838;DHT22;11585;51.450;-0.240;2024-03-08T02:24:30;8.50;99.90
22838;DHT22;11585;51.450;-0.240;2024-03-08T02:26:56;8.40;99.90
22838;DHT22;11585;51.450;-0.240;2024-03-08T02:29:22;8.50;99.90
22838;DHT22;11585;51.450;-0.240;2024-03-08T02:31:51;8.50;99.90
22838;DHT22;11585;51.450;-0.240;2024-03-08T02:34:16;8.40;99.90
22838;DHT22;11585;51.450;-0.240;2024-03-08T02:36:42;8.40;99.90
22838;DHT22;11585;51.450;-0.240;2024-03-08T02:39:07;8.50;99.90
22838;DHT22;11585;51.450;-0.240;2024-03-08T02:41:33;8.40;99.90
22838;DHT22;11585;51.450;-0.240;2024-03-08T02:43:59;8.40;99.90
22838;DHT22;11585;51.450;-0.240;2024-03-08T02:50:00;8.40;99.90
22838;DHT22;11585;51.450;-0.240;2024-03-08T02:52:27;8.40;99.90
22838;DHT22;11585;51.450;-0.240;2024-03-08T02:58:14;8.40;99.90
22838;DHT22;11585;51.450;-0.240;2024-03-08T03:00:40;8.40;99.90
22838;DHT22;11585;51.450;-0.240;2024-03-08T03:03:06;8.40;99.90
22838;DHT22;11585;51.450;-0.240;2024-03-08T03:05:52;8.40;99.90
22838;DHT22;11585;51.450;-0.240;2024-03-08T03:08:21;8.40;99.90
22838;DHT22;11585;51.450;-0.240;2024-03-08T03:10:47;8.40;99.90
22838;DHT22;11585;51.450;-0.240;2024-03-08T03:13:12;8.40;99.90
22838;DHT22;11585;51.450;-0.240;2024-03-08T03:15:40;8.40;99.90
22838;DHT22;11585;51.450;-0.240;2024-03-08T03:18:07;8.40;99.90
22838;DHT22;11585;51.450;-0.240;2024-03-08T03:20:33;8.40;99.90
22838;DHT22;11585;51.450;-0.240;2024-03-08T03:23:05;8.40;99.90
22838;DHT22;11585;51.450;-0.240;2024-03-08T03:25:33;8.30;99.90
22838;DHT22;11585;51.450;-0.240;2024-03-08T03:28:04;8.30;99.90
22838;DHT22;11585;51.450;-0.240;2024-03-08T03:30:30;8.30;99.90
22838;DHT22;11585;51.450;-0.240;2024-03-08T03:32:59;8.30;99.90
22838;DHT22;11585;51.450;-0.240;2024-03-08T03:35:32;8.30;99.90
22838;DHT22;11585;51.450;-0.240;2024-03-08T03:37:58;8.30;99.90
22838;DHT22;11585;51.450;-0.240;2024-03-08T03:40:36;8.30;99.90
22838;DHT22;11585;51.450;-0.240;2024-03-08T03:43:02;8.30;99.90
22838;DHT22;11585;51.450;-0.240;2024-03-08T03:45:29;8.30;99.90
22838;DHT22;11585;51.450;-0.240;2024-03-08T03:47:55;8.30;99.90
22838;DHT22;11585;51.450;-0.240;2024-03-08T03:50:21;8.30;99.90
22838;DHT22;11585;51.450;-0.240;2024-03-08T03:52:47;8.30;99.90
22838;DHT22;11585;51.450;-0.240;2024-03-08T03:58:35;8.30;99.90
22838;DHT22;11585;51.450;-0.240;2024-03-08T04:01:00;8.30;99.90
22838;DHT22;11585;51.450;-0.240;2024-03-08T04:03:26;8.30;99.90
22838;DHT22;11585;51.450;-0.240;2024-03-08T04:09:14;8.30;99.90
22838;DHT22;11585;51.450;-0.240;2024-03-08T04:11:39;8.20;99.90
22838;DHT22;11585;51.450;-0.240;2024-03-08T04:14:05;8.20;99.90
22838;DHT22;11585;51.450;-0.240;2024-03-08T04:20:00;8.20;99.90
22838;DHT22;11585;51.450;-0.240;2024-03-08T04:22:26;8.20;99.90
22838;DHT22;11585;51.450;-0.240;2024-03-08T04:24:55;8.20;99.90
22838;DHT22;11585;51.450;-0.240;2024-03-08T04:27:20;8.20;99.90
22838;DHT22;11585;51.450;-0.240;2024-03-08T04:29:46;8.20;99.90
22838;DHT22;11585;51.450;-0.240;2024-03-08T04:32:12;8.20;99.90
22838;DHT22;11585;51.450;-0.240;2024-03-08T04:34:39;8.20;99.90
22838;DHT22;11585;51.450;-0.240;2024-03-08T04:37:04;8.20;99.90
22838;DHT22;11585;51.450;-0.240;2024-03-08T04:39:30;8.20;99.90
22838;DHT22;11585;51.450;-0.240;2024-03-08T04:42:02;8.10;99.90
22838;DHT22;11585;51.450;-0.240;2024-03-08T04:44:36;8.10;99.90
22838;DHT22;11585;51.450;-0.240;2024-03-08T04:47:03;8.10;99.90
22838;DHT22;11585;51.450;-0.240;2024-03-08T04:49:32;8.10;99.90
22838;DHT22;11585;51.450;-0.240;2024-03-08T04:51:57;8.10;99.90
22838;DHT22;11585;51.450;-0.240;2024-03-08T04:54:40;8.10;99.90
22838;DHT22;11585;51.450;-0.240;2024-03-08T04:57:05;8.10;99.90
22838;DHT22;11585;51.450;-0.240;2024-03-08T04:59:33;8.10;99.90
22838;DHT22;11585;51.450;-0.240;2024-03-08T05:01:58;8.10;99.90
22838;DHT22;11585;51.450;-0.240;2024-03-08T05:07:31;8.10;99.90
22838;DHT22;11585;51.450;-0.240;2024-03-08T05:09:58;8.10;99.90
22838;DHT22;11585;51.450;-0.240;2024-03-08T05:12:24;8.10;99.90
22838;DHT22;11585;51.450;-0.240;2024-03-08T05:14:51;8.10;99.90
22838;DHT22;11585;51.450;-0.240;2024-03-08T05:17:17;8.10;99.90
22838;DHT22;11585;51.450;-0.240;2024-03-08T05:19:43;8.10;99.90
22838;DHT22;11585;51.450;-0.240;2024-03-08T05:22:09;8.10;99.90
22838;DHT22;11585;51.450;-0.240;2024-03-08T05:24:37;8.10;99.90
22838;DHT22;11585;51.450;-0.240;2024-03-08T05:27:02;8.10;99.90
22838;DHT22;11585;51.450;-0.240;2024-03-08T05:29:29;8.10;99.90
22838;DHT22;11585;51.450;-0.240;2024-03-08T05:31:55;8.10;99.90
22838;DHT22;11585;51.450;-0.240;2024-03-08T05:34:25;8.10;99.90
22838;DHT22;11585;51.450;-0.240;2024-03-08T05:36:51;8.00;99.90
22838;DHT22;11585;51.450;-0.240;2024-03-08T05:39:17;8.00;99.90
22838;DHT22;11585;51.450;-0.240;2024-03-08T05:41:44;8.00;99.90
22838;DHT22;11585;51.450;-0.240;2024-03-08T05:44:10;8.00;99.90
22838;DHT22;11585;51.450;-0.240;2024-03-08T05:46:37;8.00;99.90
22838;DHT22;11585;51.450;-0.240;2024-03-08T05:49:03;8.00;99.90
22838;DHT22;11585;51.450;-0.240;2024-03-08T05:51:36;8.00;99.90
22838;DHT22;11585;51.450;-0.240;2024-03-08T05:54:03;8.00;99.90
22838;DHT22;11585;51.450;-0.240;2024-03-08T05:56:33;8.00;99.90
22838;DHT22;11585;51.450;-0.240;2024-03-08T05:58:58;8.00;99.90
22838;DHT22;11585;51.450;-0.240;2024-03-08T06:01:25;7.90;99.90
22838;DHT22;11585;51.450;-0.240;2024-03-08T06:03:54;8.00;99.90
22838;DHT22;11585;51.450;-0.240;2024-03-08T06:09:37;7.90;99.90
22838;DHT22;11585;51.450;-0.240;2024-03-08T06:12:03;7.90;99.90
22838;DHT22;11585;51.450;-0.240;2024-03-08T06:14:30;7.90;99.90
22838;DHT22;11585;51.450;-0.240;2024-03-08T06:16:55;7.90;99.90
22838;DHT22;11585;51.450;-0.240;2024-03-08T06:19:21;7.90;99.90
22838;DHT22;11585;51.450;-0.240;2024-03-08T06:21:47;7.90;99.90
22838;DHT22;11585;51.450;-0.240;2024-03-08T06:24:12;7.90;99.90
22838;DHT22;11585;51.450;-0.240;2024-03-08T06:26:39;7.90;99.90
22838;DHT22;11585;51.450;-0.240;2024-03-08T06:29:05;7.90;99.90
22838;DHT22;11585;51.450;-0.240;2024-03-08T06:31:32;7.90;99.90
22838;DHT22;11585;51.450;-0.240;2024-03-08T06:33:58;7.90;99.90
22838;DHT22;11585;51.450;-0.240;2024-03-08T06:36:23;7.90;99.90
22838;DHT22;11585;51.450;-0.240;2024-03-08T06:38:50;7.90;99.90
22838;DHT22;11585;51.450;-0.240;2024-03-08T06:41:15;7.90;99.90
22838;DHT22;11585;51.450;-0.240;2024-03-08T06:43:44;7.90;99.90
22838;DHT22;11585;51.450;-0.240;2024-03-08T06:49:32;7.90;99.90
22838;DHT22;11585;51.450;-0.240;2024-03-08T06:55:27;7.90;99.90
22838;DHT22;11585;51.450;-0.240;2024-03-08T06:57:53;7.90;99.90
22838;DHT22;11585;51.450;-0.240;2024-03-08T07:00:19;7.90;99.90
22838;DHT22;11585;51.450;-0.240;2024-03-08T07:02:46;7.80;99.90
22838;DHT22;11585;51.450;-0.240;2024-03-08T07:05:17;7.80;99.90
22838;DHT22;11585;51.450;-0.240;2024-03-08T07:07:43;7.80;99.90
22838;DHT22;11585;51.450;-0.240;2024-03-08T07:10:09;7.80;99.90
22838;DHT22;11585;51.450;-0.240;2024-03-08T07:12:37;7.80;99.90
22838;DHT22;11585;51.450;-0.240;2024-03-08T07:15:29;7.80;99.90
22838;DHT22;11585;51.450;-0.240;2024-03-08T07:17:55;7.80;99.90
22838;DHT22;11585;51.450;-0.240;2024-03-08T07:20:21;7.80;99.90
22838;DHT22;11585;51.450;-0.240;2024-03-08T07:22:47;7.90;99.90
22838;DHT22;11585;51.450;-0.240;2024-03-08T07:25:16;7.80;99.90
22838;DHT22;11585;51.450;-0.240;2024-03-08T07:27:50;7.80;99.90
22838;DHT22;11585;51.450;-0.240;2024-03-08T07:30:17;7.80;99.90
22838;DHT22;11585;51.450;-0.240;2024-03-08T07:33:01;7.80;99.90
22838;DHT22;11585;51.450;-0.240;2024-03-08T07:35:48;7.90;99.90
22838;DHT22;11585;51.450;-0.240;2024-03-08T07:38:15;7.80;99.90
22838;DHT22;11585;51.450;-0.240;2024-03-08T07:40:45;7.80;99.90
22838;DHT22;11585;51.450;-0.240;2024-03-08T07:43:11;7.80;99.90
22838;DHT22;11585;51.450;-0.240;2024-03-08T07:45:56;7.90;99.90
22838;DHT22;11585;51.450;-0.240;2024-03-08T07:48:22;7.90;99.90
22838;DHT22;11585;51.450;-0.240;2024-03-08T07:50:48;7.90;99.90
22838;DHT22;11585;51.450;-0.240;2024-03-08T07:53:15;7.90;99.90
22838;DHT22;11585;51.450;-0.240;2024-03-08T07:55:43;7.90;99.90
22838;DHT22;11585;51.450;-0.240;2024-03-08T07:58:10;7.90;99.90
22838;DHT22;11585;51.450;-0.240;2024-03-08T08:00:36;7.90;99.90
22838;DHT22;11585;51.450;-0.240;2024-03-08T08:03:03;7.90;99.90
22838;DHT22;11585;51.450;-0.240;2024-03-08T08:05:34;7.90;99.90
22838;DHT22;11585;51.450;-0.240;2024-03-08T08:08:01;7.90;99.90
22838;DHT22;11585;51.450;-0.240;2024-03-08T08:10:29;7.90;99.90
22838;DHT22;11585;51.450;-0.240;2024-03-08T08:12:55;7.90;99.90
22838;DHT22;11585;51.450;-0.240;2024-03-08T08:15:23;7.90;99.90
22838;DHT22;11585;51.450;-0.240;2024-03-08T08:17:49;7.90;99.90
22838;DHT22;11585;51.450;-0.240;2024-03-08T08:20:14;7.90;99.90
22838;DHT22;11585;51.450;-0.240;2024-03-08T08:22:40;7.80;99.90
22838;DHT22;11585;51.450;-0.240;2024-03-08T08:28:28;8.00;99.90
22838;DHT22;11585;51.450;-0.240;2024-03-08T08:30:54;8.00;99.90
22838;DHT22;11585;51.450;-0.240;2024-03-08T08:33:19;7.90;99.90
22838;DHT22;11585;51.450;-0.240;2024-03-08T08:39:07;8.00;99.90
22838;DHT22;11585;51.450;-0.240;2024-03-08T08:41:39;8.00;99.90
22838;DHT22;11585;51.450;-0.240;2024-03-08T08:44:07;8.00;99.90
22838;DHT22;11585;51.450;-0.240;2024-03-08T08:49:57;8.00;99.90
22838;DHT22;11585;51.450;-0.240;2024-03-08T08:52:23;8.00;99.90
22838;DHT22;11585;51.450;-0.240;2024-03-08T08:54:49;8.10;99.90
22838;DHT22;11585;51.450;-0.240;2024-03-08T08:57:15;8.10;99.90
22838;DHT22;11585;51.450;-0.240;2024-03-08T08:59:41;8.10;99.90
22838;DHT22;11585;51.450;-0.240;2024-03-08T09:02:06;8.10;99.90
22838;DHT22;11585;51.450;-0.240;2024-03-08T09:04:37;8.10;99.90
22838;DHT22;11585;51.450;-0.240;2024-03-08T09:07:03;8.10;99.90
22838;DHT22;11585;51.450;-0.240;2024-03-08T09:09:32;8.20;99.90
22838;DHT22;11585;51.450;-0.240;2024-03-08T09:11:57;8.20;99.90
22838;DHT22;11585;51.450;-0.240;2024-03-08T09:14:23;8.20;99.90
22838;DHT22;11585;51.450;-0.240;2024-03-08T09:16:51;8.20;99.90
22838;DHT22;11585;51.450;-0.240;2024-03-08T09:19:17;8.20;99.90
22838;DHT22;11585;51.450;-0.240;2024-03-08T09:21:44;8.30;99.90
22838;DHT22;11585;51.450;-0.240;2024-03-08T09:24:10;8.20;99.90
22838;DHT22;11585;51.450;-0.240;2024-03-08T09:26:56;8.30;99.90
22838;DHT22;11585;51.450;-0.240;2024-03-08T09:29:24;8.30;99.90
22838;DHT22;11585;51.450;-0.240;2024-03-08T09:31:49;8.30;99.90
22838;DHT22;11585;51.450;-0.240;2024-03-08T09:34:15;8.30;99.90
22838;DHT22;11585;51.450;-0.240;2024-03-08T09:36:41;8.40;99.90
22838;DHT22;11585;51.450;-0.240;2024-03-08T09:39:07;8.40;99.90
22838;DHT22;11585;51.450;-0.240;2024-03-08T09:41:33;8.40;99.90
22838;DHT22;11585;51.450;-0.240;2024-03-08T09:44:00;8.40;99.90
22838;DHT22;11585;51.450;-0.240;2024-03-08T09:46:29;8.40;99.90
22838;DHT22;11585;51.450;-0.240;2024-03-08T09:48:55;8.50;99.90
22838;DHT22;11585;51.450;-0.240;2024-03-08T09:51:27;8.40;99.90
22838;DHT22;11585;51.450;-0.240;2024-03-08T09:53:53;8.50;99.90
22838;DHT22;11585;51.450;-0.240;2024-03-08T09:56:23;8.50;99.90
22838;DHT22;11585;51.450;-0.240;2024-03-08T09:58:49;8.50;99.90
22838;DHT22;11585;51.450;-0.240;2024-03-08T10:01:43;8.50;99.90
22838;DHT22;11585;51.450;-0.240;2024-03-08T10:04:09;8.50;99.90
22838;DHT22;11585;51.450;-0.240;2024-03-08T10:10:11;8.60;99.90
22838;DHT22;11585;51.450;-0.240;2024-03-08T10:12:38;8.60;99.90
22838;DHT22;11585;51.450;-0.240;2024-03-08T10:18:10;8.60;99.90
22838;DHT22;11585;51.450;-0.240;2024-03-08T10:20:36;8.60;99.90
22838;DHT22;11585;51.450;-0.240;2024-03-08T10:23:02;8.70;99.90
22838;DHT22;11585;51.450;-0.240;2024-03-08T10:25:50;8.70;99.90
22838;DHT22;11585;51.450;-0.240;2024-03-08T10:28:15;8.70;99.90
22838;DHT22;11585;51.450;-0.240;2024-03-08T10:30:47;8.70;99.90
22838;DHT22;11585;51.450;-0.240;2024-03-08T10:33:13;8.70;99.90
22838;DHT22;11585;51.450;-0.240;2024-03-08T10:35:43;8.80;99.90
22838;DHT22;11585;51.450;-0.240;2024-03-08T10:38:10;8.80;99.90
22838;DHT22;11585;51.450;-0.240;2024-03-08T10:40:40;8.80;99.90
22838;DHT22;11585;51.450;-0.240;2024-03-08T10:43:23;8.80;99.90
22838;DHT22;11585;51.450;-0.240;2024-03-08T10:49:04;8.90;99.90
22838;DHT22;11585;51.450;-0.240;2024-03-08T10:51:34;8.90;99.90
22838;DHT22;11585;51.450;-0.240;2024-03-08T10:54:01;8.90;99.90
22838;DHT22;11585;51.450;-0.240;2024-03-08T10:56:47;8.90;99.90
22838;DHT22;11585;51.450;-0.240;2024-03-08T10:59:14;9.00;99.90
22838;DHT22;11585;51.450;-0.240;2024-03-08T11:01:40;9.00;99.90
22838;DHT22;11585;51.450;-0.240;2024-03-08T11:04:06;9.00;99.90
22838;DHT22;11585;51.450;-0.240;2024-03-08T11:09:11;9.00;99.90
22838;DHT22;11585;51.450;-0.240;2024-03-08T11:11:42;9.10;99.90
22838;DHT22;11585;51.450;-0.240;2024-03-08T11:14:42;9.10;99.90
22838;DHT22;11585;51.450;-0.240;2024-03-08T11:17:08;9.10;99.90
22838;DHT22;11585;51.450;-0.240;2024-03-08T11:19:34;9.20;99.90
22838;DHT22;11585;51.450;-0.240;2024-03-08T11:22:03;9.20;99.90
22838;DHT22;11585;51.450;-0.240;2024-03-08T11:24:38;9.20;99.90
22838;DHT22;11585;51.450;-0.240;2024-03-08T11:27:07;9.20;99.90
22838;DHT22;11585;51.450;-0.240;2024-03-08T11:29:36;9.20;99.90
22838;DHT22;11585;51.450;-0.240;2024-03-08T11:32:17;9.30;99.90
22838;DHT22;11585;51.450;-0.240;2024-03-08T11:34:48;9.30;99.90
22838;DHT22;11585;51.450;-0.240;2024-03-08T11:37:17;9.30;99.90
22838;DHT22;11585;51.450;-0.240;2024-03-08T11:40:02;9.30;99.90
22838;DHT22;11585;51.450;-0.240;2024-03-08T11:42:37;9.40;99.90
22838;DHT22;11585;51.450;-0.240;2024-03-08T11:45:08;9.40;99.90
22838;DHT22;11585;51.450;-0.240;2024-03-08T11:47:36;9.40;99.90
22838;DHT22;11585;51.450;-0.240;2024-03-08T11:50:06;9.40;99.90
22838;DHT22;11585;51.450;-0.240;2024-03-08T11:52:36;9.50;99.90
22838;DHT22;11585;51.450;-0.240;2024-03-08T11:55:07;9.50;99.90
22838;DHT22;11585;51.450;-0.240;2024-03-08T11:57:33;9.50;99.90
22838;DHT22;11585;51.450;-0.240;2024-03-08T11:59:59;9.50;99.90
22838;DHT22;11585;51.450;-0.240;2024-03-08T12:02:33;9.60;99.90
22838;DHT22;11585;51.450;-0.240;2024-03-08T12:05:01;9.60;99.90
22838;DHT22;11585;51.450;-0.240;2024-03-08T12:07:29;9.60;99.90
22838;DHT22;11585;51.450;-0.240;2024-03-08T12:10:18;9.60;99.90
22838;DHT22;11585;51.450;-0.240;2024-03-08T12:12:48;9.60;99.90
22838;DHT22;11585;51.450;-0.240;2024-03-08T12:15:22;9.60;99.90
22838;DHT22;11585;51.450;-0.240;2024-03-08T12:17:49;9.60;99.90
22838;DHT22;11585;51.450;-0.240;2024-03-08T12:20:20;9.60;99.90
22838;DHT22;11585;51.450;-0.240;2024-03-08T12:22:52;9.70;99.90
22838;DHT22;11585;51.450;-0.240;2024-03-08T12:25:33;9.70;99.90
22838;DHT22;11585;51.450;-0.240;2024-03-08T12:28:09;9.70;99.90
22838;DHT22;11585;51.450;-0.240;2024-03-08T12:30:47;9.70;99.90
22838;DHT22;11585;51.450;-0.240;2024-03-08T12:33:13;9.80;99.90
22838;DHT22;11585;51.450;-0.240;2024-03-08T12:35:39;9.80;99.90
22838;DHT22;11585;51.450;-0.240;2024-03-08T12:38:06;9.80;99.90
22838;DHT22;11585;51.450;-0.240;2024-03-08T12:40:34;9.80;99.90
22838;DHT22;11585;51.450;-0.240;2024-03-08T12:43:01;9.90;99.90
22838;DHT22;11585;51.450;-0.240;2024-03-08T12:45:28;9.90;99.90
22838;DHT22;11585;51.450;-0.240;2024-03-08T12:47:56;9.90;99.90
22838;DHT22;11585;51.450;-0.240;2024-03-08T12:50:23;9.90;99.90
22838;DHT22;11585;51.450;-0.240;2024-03-08T12:52:50;9.90;99.90
22838;DHT22;11585;51.450;-0.240;2024-03-08T12:55:18;10.00;99.90
22838;DHT22;11585;51.450;-0.240;2024-03-08T12:57:45;10.00;99.90
22838;DHT22;11585;51.450;-0.240;2024-03-08T13:00:14;10.00;99.90
22838;DHT22;11585;51.450;-0.240;2024-03-08T13:02:47;10.00;99.90
22838;DHT22;11585;51.450;-0.240;2024-03-08T13:05:14;10.00;99.90
22838;DHT22;11585;51.450;-0.240;2024-03-08T13:07:40;10.10;99.90
22838;DHT22;11585;51.450;-0.240;2024-03-08T13:10:10;10.10;99.90
22838;DHT22;11585;51.450;-0.240;2024-03-08T13:12:44;10.10;99.90
22838;DHT22;11585;51.450;-0.240;2024-03-08T13:15:11;10.10;99.90
22838;DHT22;11585;51.450;-0.240;2024-03-08T13:17:41;10.10;99.90
22838;DHT22;11585;51.450;-0.240;2024-03-08T13:20:08;10.10;99.90
22838;DHT22;11585;51.450;-0.240;2024-03-08T13:22:35;10.20;99.90
22838;DHT22;11585;51.450;-0.240;2024-03-08T13:25:03;10.20;99.90
22838;DHT22;11585;51.450;-0.240;2024-03-08T13:27:30;10.20;99.90
22838;DHT22;11585;51.450;-0.240;2024-03-08T13:29:56;10.20;99.90
22838;DHT22;11585;51.450;-0.240;2024-03-08T13:32:21;10.20;99.90
22838;DHT22;11585;51.450;-0.240;2024-03-08T13:34:48;10.30;99.90
22838;DHT22;11585;51.450;-0.240;2024-03-08T13:37:16;10.30;99.90
22838;DHT22;11585;51.450;-0.240;2024-03-08T13:39:42;10.30;99.90
22838;DHT22;11585;51.450;-0.240;2024-03-08T13:42:16;10.30;99.90
22838;DHT22;11585;51.450;-0.240;2024-03-08T13:44:49;10.30;99.90
22838;DHT22;11585;51.450;-0.240;2024-03-08T13:47:18;10.30;99.90
22838;DHT22;11585;51.450;-0.240;2024-03-08T13:49:44;10.30;99.90
22838;DHT22;11585;51.450;-0.240;2024-03-08T13:52:10;10.40;99.90
22838;DHT22;11585;51.450;-0.240;2024-03-08T13:57:46;10.40;99.90
22838;DHT22;11585;51.450;-0.240;2024-03-08T14:00:13;10.40;99.90
22838;DHT22;11585;51.450;-0.240;2024-03-08T14:02:40;10.40;99.90
22838;DHT22;11585;51.450;-0.240;2024-03-08T14:05:07;10.40;99.90
22838;DHT22;11585;51.450;-0.240;2024-03-08T14:07:37;10.50;99.90
22838;DHT22;11585;51.450;-0.240;2024-03-08T14:10:04;10.50;99.90
22838;DHT22;11585;51.450;-0.240;2024-03-08T14:12:32;10.50;99.90
22838;DHT22;11585;51.450;-0.240;2024-03-08T14:14:58;10.50;99.90
22838;DHT22;11585;51.450;-0.240;2024-03-08T14:17:25;10.50;99.90
22838;DHT22;11585;51.450;-0.240;2024-03-08T14:19:52;10.50;99.90
22838;DHT22;11585;51.450;-0.240;2024-03-08T14:22:18;10.50;99.90
22838;DHT22;11585;51.450;-0.240;2024-03-08T14:24:45;10.50;99.90
22838;DHT22;11585;51.450;-0.240;2024-03-08T14:27:11;10.60;99.90
22838;DHT22;11585;51.450;-0.240;2024-03-08T14:29:38;10.60;99.90
22838;DHT22;11585;51.450;-0.240;2024-03-08T14:32:07;10.60;99.90
22838;DHT22;11585;51.450;-0.240;2024-03-08T14:34:34;10.60;99.90
22838;DHT22;11585;51.450;-0.240;2024-03-08T14:37:00;10.60;99.90
22838;DHT22;11585;51.450;-0.240;2024-03-08T14:39:26;10.60;99.90
22838;DHT22;11585;51.450;-0.240;2024-03-08T14:41:55;10.60;99.90
22838;DHT22;11585;51.450;-0.240;2024-03-08T14:47:29;10.70;99.90
22838;DHT22;11585;51.450;-0.240;2024-03-08T14:49:54;10.60;99.90
22838;DHT22;11585;51.450;-0.240;2024-03-08T14:52:20;10.60;99.90
22838;DHT22;11585;51.450;-0.240;2024-03-08T14:58:00;10.60;99.90
22838;DHT22;11585;51.450;-0.240;2024-03-08T15:00:25;10.60;99.90
22838;DHT22;11585;51.450;-0.240;2024-03-08T15:03:00;10.60;99.90
22838;DHT22;11585;51.450;-0.240;2024-03-08T15:05:30;10.60;99.90
22838;DHT22;11585;51.450;-0.240;2024-03-08T15:07:58;10.70;99.90
22838;DHT22;11585;51.450;-0.240;2024-03-08T15:10:28;10.70;99.90
22838;DHT22;11585;51.450;-0.240;2024-03-08T15:12:54;10.70;99.90
22838;DHT22;11585;51.450;-0.240;2024-03-08T15:18:32;10.60;99.90
22838;DHT22;11585;51.450;-0.240;2024-03-08T15:21:04;10.70;99.90
22838;DHT22;11585;51.450;-0.240;2024-03-08T15:23:36;10.80;99.90
22838;DHT22;11585;51.450;-0.240;2024-03-08T15:29:05;10.60;99.90
22838;DHT22;11585;51.450;-0.240;2024-03-08T15:31:31;10.60;99.90
22838;DHT22;11585;51.450;-0.240;2024-03-08T15:33:57;10.60;99.90
22838;DHT22;11585;51.450;-0.240;2024-03-08T15:36:47;10.50;99.90
22838;DHT22;11585;51.450;-0.240;2024-03-08T15:39:16;10.50;99.90
22838;DHT22;11585;51.450;-0.240;2024-03-08T15:41:42;10.50;99.90
22838;DHT22;11585;51.450;-0.240;2024-03-08T15:44:09;10.50;99.90
22838;DHT22;11585;51.450;-0.240;2024-03-08T15:46:42;10.40;99.90
22838;DHT22;11585;51.450;-0.240;2024-03-08T15:49:07;10.40;99.90
22838;DHT22;11585;51.450;-0.240;2024-03-08T15:51:38;10.40;99.90
22838;DHT22;11585;51.450;-0.240;2024-03-08T15:54:04;10.40;99.90
22838;DHT22;11585;51.450;-0.240;2024-03-08T15:56:30;10.40;99.90
22838;DHT22;11585;51.450;-0.240;2024-03-08T15:58:57;10.30;99.90
22838;DHT22;11585;51.450;-0.240;2024-03-08T16:01:23;10.30;99.90
22838;DHT22;11585;51.450;-0.240;2024-03-08T16:03:50;10.30;99.90
22838;DHT22;11585;51.450;-0.240;2024-03-08T16:06:20;10.30;99.90
22838;DHT22;11585;51.450;-0.240;2024-03-08T16:08:50;10.20;99.90
22838;DHT22;11585;51.450;-0.240;2024-03-08T16:11:17;10.20;99.90
22838;DHT22;11585;51.450;-0.240;2024-03-08T16:13:44;10.20;99.90
22838;DHT22;11585;51.450;-0.240;2024-03-08T16:16:12;10.20;99.90
22838;DHT22;11585;51.450;-0.240;2024-03-08T16:18:37;10.20;99.90
22838;DHT22;11585;51.450;-0.240;2024-03-08T16:21:03;10.10;99.90
22838;DHT22;11585;51.450;-0.240;2024-03-08T16:23:29;10.20;99.90
22838;DHT22;11585;51.450;-0.240;2024-03-08T16:25:56;10.10;99.90
22838;DHT22;11585;51.450;-0.240;2024-03-08T16:28:22;10.10;99.90
22838;DHT22;11585;51.450;-0.240;2024-03-08T16:30:51;10.10;99.90
22838;DHT22;11585;51.450;-0.240;2024-03-08T16:33:21;10.10;99.90
22838;DHT22;11585;51.450;-0.240;2024-03-08T16:35:51;10.10;99.90
22838;DHT22;11585;51.450;-0.240;2024-03-08T16:38:19;10.00;99.90
22838;DHT22;11585;51.450;-0.240;2024-03-08T16:40:51;10.00;99.90
22838;DHT22;11585;51.450;-0.240;2024-03-08T16:43:17;10.00;99.90
22838;DHT22;11585;51.450;-0.240;2024-03-08T16:45:47;10.00;99.90